Elkins-Randolph Co-Jennings Randolph Field
KEKN : now visible

Airfield :











YOU CAN JOIN US ON...

 
LOGIN :

Register | Disclaimer

   EN    FR    IT 

 









Legend :    VFR   Marginal VFR   IFR   Intensive IFR   Very Intensive IFR
Visi :
Ceiling :
>= 8 km
>= 3000ft
5 to 8 km
1000 to 3000 ft
1500m to 5 km
500 to 1000 ft
800 to 1500m
200 to 500 ft
< 800m
< 200 ft
Symbols :   Thunderstorms  Fog  Heavy snow  Heavy precipitations  Wind > 20 kt






- Airport Elevation : 1987 ft


KEKN - Elkins-Randolph Co-Jennings Randolph Field

CURRENT METAR :
  • 261651Z AUTO VRB03KT 10SM BKN039 BKN046 14/04 A2979 RMK AO2 PRESFR SLP092 T01390039

EXPIRED METARs :
  • 261551Z AUTO 21006KT 10SM BKN038 12/04 A2983 RMK AO2 SLP106 T01220044
  • 261451Z AUTO 00000KT 10SM OVC039 10/05 A2985 RMK AO2 SLP117 T01000050 58004

TAF KEKN
Valid from the 26 at 15:00 until the 27 at 12:00 UTC


261500Z 2615/2712 20004KT P6SM OVC040
FM262000 24010KT 3SM RA VCTS OVC020CB
FM270100 26010G18KT 1SM -SN OVC007
PROB30 2702/2706 1/4SM +SN OVC003
FM270800 28016G27KT 1SM -SHSN BLSN OVC011



MET'MAP, your aeronautical weather chart ! - Copyright ORBIFLY December 2007 - Disclaimer

ORBIFLY MET'MAP TEAM :

Programming & Development : Alexandra Zaïnal
Concept & original design : Baudouin d'Aumeries
Assistance for programming : Marc-Olivier Méhu
Technical & hardware support : Manuel Goepfert

Contact : metmap@orbifly.com




SOURCES & CREDITS :

   NOAA       Earth
Advisory